EmailTwitter


Observations de surface / France / LFBO (07630)

Régions: Québec | Canada | États-Unis | Europe | France | UK | Ailleurs
Station
Affichage
Infos & localisation pour LFBO (07630) | Aide pour décoder les METARs

Observations prises le 2018-05-25 à 20H00 UTC à TOULOUSE/BLAGNAC, FR (LFBO)

Température: 21.0 Celsius

Point de rosée: 9.0 Celsius

Humidité relative: 46%

Vents: Est-sud-est à 15 km/h ou 8 noeuds.

Pression au niveau moyen de la mer: 101.20 kilopascals.

Observation METAR:

LFBO 252000Z AUTO 11008KT CAVOK 21/09 Q1012 TEMPO 12015G25KT=